Time;durP1;ratioP1;P1;durP2;ratioP2;P2;SDS_P1;SDS_P2;PMS_P1;PMS_P2;Temp;Humidity;BMP_temperature;BMP_pressure;BME280_temperature;BME280_humidity;BME280_pressure;Samples;Min_cycle;Max_cycle;Signal;HPM_P1;HPM_P2
2023/02/12 00:00:43;;;;;;;97.65;30.35;;;;;;;;;;4922216;29;20035;-76
2023/02/12 00:03:11;;;;;;;95.13;29.83;;;;;;;;;;4924753;29;20483;-77
2023/02/12 00:05:38;;;;;;;90.13;28.15;;;;;;;;;;4922947;29;20126;-77
2023/02/12 00:08:04;;;;;;;87.38;27.88;;;;;;;;;;4917259;29;20040;-76
2023/02/12 00:10:29;;;;;;;96.60;29.27;;;;;;;;;;4915058;29;20527;-77
2023/02/12 00:12:57;;;;;;;80.93;25.95;;;;;;;;;;4908802;29;20412;-75
2023/02/12 00:15:23;;;;;;;88.18;26.92;;;;;;;;;;4911807;29;20167;-75
2023/02/12 00:17:48;;;;;;;87.35;27.23;;;;;;;;;;4914062;29;20531;-76
2023/02/12 00:20:13;;;;;;;90.68;28.23;;;;;;;;;;4921210;29;20040;-76
2023/02/12 00:22:39;;;;;;;86.80;27.02;;;;;;;;;;4915392;29;20027;-76
2023/02/12 00:25:05;;;;;;;94.68;29.80;;;;;;;;;;4916553;29;20404;-76
2023/02/12 00:27:34;;;;;;;85.35;27.45;;;;;;;;;;4923072;29;20392;-76
2023/02/12 00:29:59;;;;;;;98.40;30.55;;;;;;;;;;4917232;29;20055;-77
2023/02/12 00:32:25;;;;;;;86.45;28.50;;;;;;;;;;4906398;29;20480;-76
2023/02/12 00:34:50;;;;;;;97.05;29.55;;;;;;;;;;4910604;29;20360;-76
2023/02/12 00:37:18;;;;;;;90.28;28.33;;;;;;;;;;4914129;29;20528;-76
2023/02/12 00:39:44;;;;;;;92.65;28.08;;;;;;;;;;4920038;29;20394;-76
2023/02/12 00:42:12;;;;;;;96.15;30.67;;;;;;;;;;4914391;29;20029;-76
2023/02/12 00:44:37;;;;;;;114.28;36.15;;;;;;;;;;4905047;29;20070;-76
2023/02/12 00:47:04;;;;;;;115.60;35.83;;;;;;;;;;4912408;29;20052;-76
2023/02/12 00:49:36;;;;;;;117.30;37.05;;;;;;;;;;4918002;29;20033;-75
2023/02/12 00:52:03;;;;;;;131.82;38.20;;;;;;;;;;4917526;29;20452;-76
2023/02/12 00:54:30;;;;;;;115.90;36.35;;;;;;;;;;4910968;29;20028;-76
2023/02/12 00:56:58;;;;;;;105.68;31.98;;;;;;;;;;4909550;29;20059;-76
2023/02/12 00:59:25;;;;;;;106.18;30.85;;;;;;;;;;4906728;29;20024;-76
2023/02/12 01:01:52;;;;;;;105.32;30.75;;;;;;;;;;4909486;29;20028;-75
2023/02/12 01:04:17;;;;;;;100.20;31.10;;;;;;;;;;4915313;29;20032;-76
2023/02/12 01:06:43;;;;;;;109.68;31.58;;;;;;;;;;4916212;29;20506;-76
2023/02/12 01:09:09;;;;;;;113.40;31.23;;;;;;;;;;4909132;29;20028;-76
2023/02/12 01:11:34;;;;;;;95.28;28.27;;;;;;;;;;4923612;29;20118;-75
2023/02/12 01:14:00;;;;;;;106.07;30.42;;;;;;;;;;4925949;29;20146;-76
2023/02/12 01:16:30;;;;;;;102.38;30.70;;;;;;;;;;4924613;29;20046;-75
2023/02/12 01:18:56;;;;;;;97.20;29.15;;;;;;;;;;4914540;29;20043;-76
2023/02/12 01:21:27;;;;;;;98.97;29.48;;;;;;;;;;4922434;29;20480;-77
2023/02/12 01:23:53;;;;;;;102.55;29.25;;;;;;;;;;4925011;29;20058;-76
2023/02/12 01:26:20;;;;;;;98.35;29.55;;;;;;;;;;4924400;29;20063;-76
2023/02/12 01:28:55;;;;;;;103.97;29.90;;;;;;;;;;4919393;29;20404;-76
2023/02/12 01:31:24;;;;;;;95.13;27.77;;;;;;;;;;4916544;29;20484;-76
2023/02/12 01:33:52;;;;;;;89.85;27.38;;;;;;;;;;4926937;29;20042;-77
2023/02/12 01:36:17;;;;;;;85.45;26.30;;;;;;;;;;4923109;29;20036;-76
2023/02/12 01:38:46;;;;;;;77.85;24.67;;;;;;;;;;4927738;29;20045;-76
2023/02/12 01:41:15;;;;;;;92.35;29.20;;;;;;;;;;4923865;29;20483;-76
2023/02/12 01:43:43;;;;;;;80.47;27.33;;;;;;;;;;4925690;29;20034;-76
2023/02/12 01:46:11;;;;;;;83.38;27.25;;;;;;;;;;4922416;29;20024;-76
2023/02/12 01:48:41;;;;;;;80.97;24.83;;;;;;;;;;4925221;29;20070;-76
2023/02/12 01:51:08;;;;;;;;;;;;;;;;;;4922851;29;20038;-76
2023/02/12 01:53:48;;;;;;;64.15;22.23;;;;;;;;;;4903158;29;19962;-76
2023/02/12 01:56:14;;;;;;;64.25;22.20;;;;;;;;;;4916891;29;20039;-75
2023/02/12 01:58:44;;;;;;;70.80;22.25;;;;;;;;;;4921651;29;20552;-76
2023/02/12 02:01:15;;;;;;;77.38;23.60;;;;;;;;;;4918993;29;20028;-75
2023/02/12 02:03:45;;;;;;;71.20;22.92;;;;;;;;;;4918727;29;20399;-76
2023/02/12 02:06:15;;;;;;;67.93;23.52;;;;;;;;;;4920323;29;20032;-76
2023/02/12 02:08:41;;;;;;;61.15;22.60;;;;;;;;;;4924890;29;20024;-76
2023/02/12 02:16:43;;;;;;;63.03;21.00;;;;;;;;;;4920421;29;20135;-76
2023/02/12 02:19:29;;;;;;;54.13;21.02;;;;;;;;;;4919270;29;20118;-76
2023/02/12 02:22:06;;;;;;;58.05;19.90;;;;;;;;;;4921880;29;20407;-76
2023/02/12 02:25:11;;;;;;;54.63;20.33;;;;;;;;;;4924786;29;20032;-76
2023/02/12 02:27:43;;;;;;;46.78;18.70;;;;;;;;;;4925445;29;20036;-76
2023/02/12 02:30:46;;;;;;;45.92;19.08;;;;;;;;;;4918900;29;20028;-77
2023/02/12 02:33:28;;;;;;;42.63;18.05;;;;;;;;;;4920315;29;20034;-76
2023/02/12 02:36:12;;;;;;;44.92;17.88;;;;;;;;;;4920846;29;20118;-76
2023/02/12 02:38:46;;;;;;;40.53;16.60;;;;;;;;;;4919812;29;20043;-76
2023/02/12 02:41:27;;;;;;;41.20;18.05;;;;;;;;;;4913512;29;20428;-76
2023/02/12 02:43:54;;;;;;;41.38;17.73;;;;;;;;;;4919815;29;20028;-77
2023/02/12 02:46:33;;;;;;;49.33;20.95;;;;;;;;;;4921166;29;20036;-77
2023/02/12 02:49:06;;;;;;;44.25;21.58;;;;;;;;;;4920367;29;20446;-77
2023/02/12 02:51:36;;;;;;;48.17;22.67;;;;;;;;;;4919531;29;20399;-75
2023/02/12 02:54:15;;;;;;;44.72;21.20;;;;;;;;;;4918857;29;20028;-76
2023/02/12 02:56:44;;;;;;;;;;;;;;;;;;4920691;29;20067;-74
2023/02/12 02:59:24;;;;;;;45.30;20.27;;;;;;;;;;4909456;29;20298;-75
2023/02/12 03:01:55;;;;;;;43.97;20.35;;;;;;;;;;4915697;29;20447;-76
2023/02/12 03:04:31;;;;;;;50.60;23.08;;;;;;;;;;4920264;29;20058;-77
2023/02/12 03:07:11;;;;;;;42.75;21.17;;;;;;;;;;4916936;29;20036;-76
2023/02/12 03:09:42;;;;;;;41.95;20.45;;;;;;;;;;4923085;29;20047;-76
2023/02/12 03:12:16;;;;;;;39.60;19.58;;;;;;;;;;4922273;29;20491;-76
2023/02/12 03:14:47;;;;;;;39.60;19.45;;;;;;;;;;4913358;29;20407;-77
2023/02/12 03:17:20;;;;;;;38.22;17.95;;;;;;;;;;4922574;29;20031;-76
2023/02/12 03:19:53;;;;;;;37.60;18.08;;;;;;;;;;4916872;29;20173;-77
2023/02/12 03:22:25;;;;;;;36.70;18.85;;;;;;;;;;4917841;29;20472;-76
2023/02/12 03:24:57;;;;;;;38.83;18.05;;;;;;;;;;4921403;29;20035;-78
2023/02/12 03:27:30;;;;;;;39.97;18.73;;;;;;;;;;4920354;29;20025;-76
2023/02/12 03:30:02;;;;;;;41.03;19.50;;;;;;;;;;4913595;29;20168;-76
2023/02/12 03:32:48;;;;;;;35.22;18.23;;;;;;;;;;4922116;29;20398;-76
2023/02/12 03:36:04;;;;;;;39.75;19.73;;;;;;;;;;4914092;29;20053;-76
2023/02/12 03:38:53;;;;;;;37.70;19.00;;;;;;;;;;4905642;29;20044;-76
2023/02/12 03:41:44;;;;;;;39.47;17.08;;;;;;;;;;4922226;29;20032;-76
2023/02/12 03:44:21;;;;;;;39.47;18.23;;;;;;;;;;4918464;29;20499;-77
2023/02/12 03:47:01;;;;;;;35.83;17.65;;;;;;;;;;4921250;29;20406;-75
2023/02/12 03:49:47;;;;;;;37.28;17.02;;;;;;;;;;4921528;29;20067;-76
2023/02/12 03:52:12;;;;;;;41.72;18.33;;;;;;;;;;4918879;29;20214;-76
2023/02/12 03:54:38;;;;;;;37.35;17.27;;;;;;;;;;4921588;29;20486;-77
2023/02/12 03:57:14;;;;;;;38.90;18.13;;;;;;;;;;4919091;29;20028;-77
2023/02/12 03:59:40;;;;;;;38.78;18.08;;;;;;;;;;4920998;29;20020;-76
2023/02/12 04:02:09;;;;;;;42.38;18.13;;;;;;;;;;4918547;29;20028;-76
2023/02/12 04:04:37;;;;;;;34.50;17.03;;;;;;;;;;4927566;29;20092;-76
2023/02/12 04:07:03;;;;;;;39.10;17.08;;;;;;;;;;4925988;29;20404;-76
2023/02/12 04:09:30;;;;;;;37.28;16.88;;;;;;;;;;4924949;29;20035;-76
2023/02/12 04:12:30;;;;;;;32.92;15.55;;;;;;;;;;4924800;29;20112;-76
2023/02/12 04:15:14;;;;;;;41.58;16.52;;;;;;;;;;4916683;29;20074;-76
2023/02/12 04:18:13;;;;;;;37.55;16.08;;;;;;;;;;4917351;29;20036;-75
2023/02/12 04:20:43;;;;;;;43.35;16.85;;;;;;;;;;4916916;29;20023;-75
2023/02/12 04:23:14;;;;;;;34.45;14.77;;;;;;;;;;4917535;29;20043;-76
2023/02/12 04:25:51;;;;;;;38.55;16.55;;;;;;;;;;4921429;29;20035;-76
2023/02/12 04:28:44;;;;;;;36.97;16.73;;;;;;;;;;4913685;29;20043;-77
2023/02/12 04:31:23;;;;;;;36.28;15.75;;;;;;;;;;4921833;29;20031;-77
2023/02/12 04:34:23;;;;;;;35.03;16.63;;;;;;;;;;4927257;29;20386;-75
2023/02/12 04:37:21;;;;;;;39.67;15.23;;;;;;;;;;4924841;29;20106;-76
2023/02/12 04:39:48;;;;;;;37.70;16.73;;;;;;;;;;4921325;29;20064;-77
2023/02/12 04:42:16;;;;;;;35.08;15.40;;;;;;;;;;4923337;29;20024;-76
2023/02/12 04:44:43;;;;;;;38.13;15.40;;;;;;;;;;4924375;29;20483;-76
2023/02/12 04:47:15;;;;;;;37.97;15.65;;;;;;;;;;4920394;29;20028;-76
2023/02/12 04:49:41;;;;;;;41.05;17.48;;;;;;;;;;4921110;29;20028;-75
2023/02/12 04:52:08;;;;;;;43.83;17.35;;;;;;;;;;4920415;29;20405;-76
2023/02/12 04:54:34;;;;;;;43.17;16.50;;;;;;;;;;4917997;29;20081;-76
2023/02/12 04:57:02;;;;;;;46.17;16.80;;;;;;;;;;4917636;29;20066;-75
2023/02/12 04:59:27;;;;;;;43.42;18.00;;;;;;;;;;4918831;29;20046;-76
2023/02/12 05:01:55;;;;;;;41.72;17.70;;;;;;;;;;4922935;29;20080;-76
2023/02/12 05:04:23;;;;;;;39.75;16.70;;;;;;;;;;4912928;29;20028;-75
2023/02/12 05:06:48;;;;;;;35.55;15.57;;;;;;;;;;4924859;29;20020;-75
2023/02/12 05:09:19;;;;;;;40.35;15.07;;;;;;;;;;4916402;29;20058;-76
2023/02/12 05:11:44;;;;;;;40.17;16.08;;;;;;;;;;4912926;29;20075;-76
2023/02/12 05:14:10;;;;;;;39.78;15.48;;;;;;;;;;4923540;29;20516;-76
2023/02/12 05:16:36;;;;;;;38.70;15.18;;;;;;;;;;4920187;29;20032;-76
2023/02/12 05:19:01;;;;;;;33.75;15.13;;;;;;;;;;4921268;29;20024;-77
2023/02/12 05:21:27;;;;;;;38.60;15.63;;;;;;;;;;4923850;29;20082;-77
2023/02/12 05:23:52;;;;;;;37.20;16.02;;;;;;;;;;4929801;29;20031;-76
2023/02/12 05:26:20;;;;;;;41.35;16.33;;;;;;;;;;4926297;29;20123;-77
2023/02/12 05:28:48;;;;;;;51.30;19.98;;;;;;;;;;4919901;29;20095;-77
2023/02/12 05:31:16;;;;;;;47.97;20.35;;;;;;;;;;4919202;29;20098;-77
2023/02/12 05:33:43;;;;;;;52.03;23.15;;;;;;;;;;4921402;29;20031;-76
2023/02/12 05:36:12;;;;;;;66.80;25.45;;;;;;;;;;4921423;29;20489;-78
2023/02/12 05:38:38;;;;;;;58.10;26.35;;;;;;;;;;4921748;29;20042;-76
2023/02/12 05:41:11;;;;;;;66.38;28.27;;;;;;;;;;4916546;29;20066;-77
2023/02/12 05:43:37;;;;;;;65.55;27.83;;;;;;;;;;4924239;29;20517;-76
2023/02/12 05:46:06;;;;;;;69.07;28.17;;;;;;;;;;4922125;29;20034;-77
2023/02/12 05:48:35;;;;;;;68.65;28.83;;;;;;;;;;4920999;29;20110;-75
2023/02/12 05:51:16;;;;;;;68.40;28.08;;;;;;;;;;4917935;29;20059;-76
2023/02/12 05:53:41;;;;;;;65.30;27.45;;;;;;;;;;4921698;29;20024;-76
2023/02/12 05:56:24;;;;;;;57.60;23.75;;;;;;;;;;4914953;29;20127;-76
2023/02/12 05:58:55;;;;;;;54.42;21.27;;;;;;;;;;4911046;29;20051;-76
2023/02/12 06:01:26;;;;;;;50.30;20.80;;;;;;;;;;4916074;29;20178;-76
2023/02/12 06:03:51;;;;;;;52.28;22.48;;;;;;;;;;4915468;29;20107;-76
2023/02/12 06:06:17;;;;;;;55.72;23.42;;;;;;;;;;4915634;29;20123;-76
2023/02/12 06:08:42;;;;;;;58.65;21.38;;;;;;;;;;4917827;29;20494;-76
2023/02/12 06:11:12;;;;;;;57.40;20.70;;;;;;;;;;4922121;29;20082;-75
2023/02/12 06:13:37;;;;;;;48.70;19.38;;;;;;;;;;4923276;29;20032;-76
2023/02/12 06:16:03;;;;;;;55.75;21.00;;;;;;;;;;4922699;29;20527;-76
2023/02/12 06:18:32;;;;;;;50.72;20.60;;;;;;;;;;4922360;29;20051;-75
2023/02/12 06:20:57;;;;;;;51.72;19.35;;;;;;;;;;4925265;29;20027;-75
2023/02/12 06:23:23;;;;;;;50.65;20.55;;;;;;;;;;4920646;29;20086;-76
2023/02/12 06:25:50;;;;;;;50.03;18.42;;;;;;;;;;4924335;29;20028;-75
2023/02/12 06:28:18;;;;;;;48.70;19.23;;;;;;;;;;4914447;29;20036;-77
2023/02/12 06:30:43;;;;;;;45.25;18.33;;;;;;;;;;4914361;29;20077;-75
2023/02/12 06:33:09;;;;;;;48.40;17.75;;;;;;;;;;4916422;29;20071;-77
2023/02/12 06:35:35;;;;;;;47.65;18.27;;;;;;;;;;4921028;29;20028;-76
2023/02/12 06:38:03;;;;;;;59.70;19.67;;;;;;;;;;4921907;29;20639;-76
2023/02/12 06:40:28;;;;;;;55.25;21.83;;;;;;;;;;4921321;29;20031;-74
2023/02/12 06:42:54;;;;;;;53.30;20.88;;;;;;;;;;4920822;29;20066;-76
2023/02/12 06:45:19;;;;;;;56.33;23.42;;;;;;;;;;4919141;29;20032;-75
2023/02/12 06:47:44;;;;;;;57.03;25.58;;;;;;;;;;4919368;29;20059;-76
2023/02/12 06:50:10;;;;;;;52.30;23.27;;;;;;;;;;4918616;29;20444;-77
2023/02/12 06:52:38;;;;;;;57.58;22.77;;;;;;;;;;4919690;29;20028;-75
2023/02/12 06:55:06;;;;;;;57.08;22.85;;;;;;;;;;4917890;29;20024;-75
2023/02/12 06:57:31;;;;;;;59.30;24.02;;;;;;;;;;4916734;29;20032;-77
2023/02/12 06:59:56;;;;;;;57.80;24.23;;;;;;;;;;4913089;29;20552;-76
2023/02/12 07:02:24;;;;;;;59.72;24.92;;;;;;;;;;4912450;29;20047;-76
2023/02/12 07:04:49;;;;;;;58.28;22.70;;;;;;;;;;4917988;29;20444;-76
2023/02/12 07:07:16;;;;;;;52.33;22.55;;;;;;;;;;4912576;29;20083;-76
2023/02/12 07:09:41;;;;;;;48.17;21.42;;;;;;;;;;4923401;29;20031;-76
2023/02/12 07:12:07;;;;;;;58.88;25.38;;;;;;;;;;4922547;29;20046;-76
2023/02/12 07:14:32;;;;;;;57.03;23.85;;;;;;;;;;4915408;29;20060;-76
2023/02/12 07:17:02;;;;;;;49.10;19.63;;;;;;;;;;4914304;29;20072;-76
2023/02/12 07:19:28;;;;;;;45.40;19.23;;;;;;;;;;4925656;29;20483;-75
2023/02/12 07:21:56;;;;;;;47.53;19.90;;;;;;;;;;4922629;29;20315;-75
2023/02/12 07:24:21;;;;;;;39.33;17.08;;;;;;;;;;4917957;29;20483;-75
2023/02/12 07:26:47;;;;;;;43.05;17.10;;;;;;;;;;4919526;29;20043;-76
2023/02/12 07:29:12;;;;;;;40.92;16.42;;;;;;;;;;4917667;29;20064;-74
2023/02/12 07:31:40;;;;;;;44.10;18.05;;;;;;;;;;4928903;29;20501;-75
2023/02/12 07:34:06;;;;;;;37.40;16.40;;;;;;;;;;4924157;29;20031;-75
2023/02/12 07:36:33;;;;;;;40.28;16.92;;;;;;;;;;4921292;29;20028;-76
2023/02/12 07:39:00;;;;;;;38.85;16.13;;;;;;;;;;4924436;29;20546;-76
2023/02/12 07:41:31;;;;;;;39.65;15.45;;;;;;;;;;4920868;29;20498;-77
2023/02/12 07:44:06;;;;;;;30.52;12.55;;;;;;;;;;4925167;29;20042;-76
2023/02/12 07:46:34;;;;;;;26.30;11.30;;;;;;;;;;4920257;29;20395;-75
2023/02/12 07:49:03;;;;;;;33.65;12.48;;;;;;;;;;4920524;29;20062;-76
2023/02/12 07:51:29;;;;;;;36.08;15.93;;;;;;;;;;4921719;29;20448;-76
2023/02/12 07:53:59;;;;;;;30.00;14.10;;;;;;;;;;4919782;29;20027;-76
2023/02/12 07:56:31;;;;;;;28.48;13.30;;;;;;;;;;4921514;29;20027;-76
2023/02/12 07:58:58;;;;;;;28.52;14.57;;;;;;;;;;4922042;29;20031;-76
2023/02/12 08:01:26;;;;;;;28.48;12.50;;;;;;;;;;4924338;29;20027;-76
2023/02/12 08:03:53;;;;;;;32.65;14.05;;;;;;;;;;4926404;29;20020;-74
2023/02/12 08:06:25;;;;;;;30.13;15.07;;;;;;;;;;4919544;29;20298;-75
2023/02/12 08:08:52;;;;;;;36.67;20.45;;;;;;;;;;4928046;29;20115;-76
2023/02/12 08:11:18;;;;;;;42.10;22.17;;;;;;;;;;4924967;29;20027;-76
2023/02/12 08:13:44;;;;;;;49.30;24.88;;;;;;;;;;4924796;29;20079;-76
2023/02/12 08:16:12;;;;;;;41.58;20.45;;;;;;;;;;4916425;29;20059;-76
2023/02/12 08:18:38;;;;;;;36.83;16.05;;;;;;;;;;4921738;29;20127;-77
2023/02/12 08:21:12;;;;;;;33.83;16.38;;;;;;;;;;4929252;29;20119;-76
2023/02/12 08:23:40;;;;;;;38.10;16.30;;;;;;;;;;4921337;29;20270;-75
2023/02/12 08:26:07;;;;;;;35.15;16.48;;;;;;;;;;4921302;29;20566;-76
2023/02/12 08:28:32;;;;;;;36.65;16.60;;;;;;;;;;4921651;29;20067;-76
2023/02/12 08:31:03;;;;;;;34.05;14.82;;;;;;;;;;4905777;29;20063;-77
2023/02/12 08:33:29;;;;;;;32.78;14.82;;;;;;;;;;4923553;29;20060;-76
2023/02/12 08:36:12;;;;;;;37.22;15.15;;;;;;;;;;4920039;29;20506;-76
2023/02/12 08:38:38;;;;;;;41.70;18.55;;;;;;;;;;4925906;29;20035;-75
2023/02/12 08:41:06;;;;;;;52.05;26.52;;;;;;;;;;4923119;29;20116;-76
2023/02/12 08:43:33;;;;;;;72.35;31.23;;;;;;;;;;4922635;29;20043;-77
2023/02/12 08:46:06;;;;;;;66.75;27.52;;;;;;;;;;4920411;29;20028;-74
2023/02/12 08:48:32;;;;;;;65.40;25.13;;;;;;;;;;4922677;29;20039;-76
2023/02/12 08:51:19;;;;;;;64.70;25.40;;;;;;;;;;4920523;29;20036;-75
2023/02/12 08:53:47;;;;;;;68.82;26.85;;;;;;;;;;4918955;29;20032;-75
2023/02/12 08:56:14;;;;;;;68.28;28.10;;;;;;;;;;4918597;29;20059;-76
2023/02/12 08:58:40;;;;;;;77.43;28.20;;;;;;;;;;4923602;29;20035;-76
2023/02/12 09:01:12;;;;;;;52.65;21.70;;;;;;;;;;4923881;29;20024;-76
2023/02/12 09:03:38;;;;;;;47.85;19.13;;;;;;;;;;4926174;29;20023;-76
2023/02/12 09:06:05;;;;;;;33.38;13.55;;;;;;;;;;4922986;29;20494;-77
2023/02/12 09:08:32;;;;;;;16.55;5.97;;;;;;;;;;4916542;29;20031;-77
2023/02/12 09:10:58;;;;;;;18.92;7.18;;;;;;;;;;4922621;29;20039;-76
2023/02/12 09:13:23;;;;;;;16.50;5.97;;;;;;;;;;4923503;29;20032;-76
2023/02/12 09:15:49;;;;;;;14.80;5.78;;;;;;;;;;4919875;29;20031;-76
2023/02/12 09:18:14;;;;;;;13.70;5.25;;;;;;;;;;4930437;29;20031;-76
2023/02/12 09:20:43;;;;;;;13.73;4.95;;;;;;;;;;4915586;29;20471;-76
2023/02/12 09:23:10;;;;;;;16.20;5.65;;;;;;;;;;4915236;29;20079;-76
2023/02/12 09:25:39;;;;;;;12.95;5.10;;;;;;;;;;4923607;29;20059;-76
2023/02/12 09:28:05;;;;;;;15.57;5.75;;;;;;;;;;4921477;29;20051;-76
2023/02/12 09:30:30;;;;;;;14.38;5.07;;;;;;;;;;4917013;29;20507;-76
2023/02/12 09:32:56;;;;;;;16.35;6.68;;;;;;;;;;4922699;29;20036;-76
2023/02/12 09:35:22;;;;;;;14.07;5.45;;;;;;;;;;4920306;29;20043;-77
2023/02/12 09:37:48;;;;;;;14.45;5.35;;;;;;;;;;4922691;29;20032;-76
2023/02/12 09:40:30;;;;;;;14.88;5.60;;;;;;;;;;4918735;29;20019;-76
2023/02/12 09:43:07;;;;;;;13.10;5.28;;;;;;;;;;4919701;29;20056;-76
2023/02/12 09:45:38;;;;;;;14.50;6.55;;;;;;;;;;4918936;29;20519;-77
2023/02/12 09:48:24;;;;;;;17.23;6.60;;;;;;;;;;4916454;29;20114;-76
2023/02/12 09:50:55;;;;;;;12.57;5.72;;;;;;;;;;4897253;29;20088;-76
2023/02/12 09:53:24;;;;;;;11.60;4.88;;;;;;;;;;4917813;29;20055;-75
2023/02/12 09:55:55;;;;;;;14.40;5.88;;;;;;;;;;4918509;29;20019;-75
2023/02/12 09:58:40;;;;;;;10.52;4.43;;;;;;;;;;4920929;29;20042;-76
2023/02/12 10:01:14;;;;;;;11.18;4.65;;;;;;;;;;4926084;29;20027;-76
2023/02/12 10:03:40;;;;;;;12.00;4.70;;;;;;;;;;4915387;29;20031;-76
2023/02/12 10:06:15;;;;;;;9.80;4.50;;;;;;;;;;4914840;29;20036;-77
2023/02/12 10:08:55;;;;;;;11.95;5.05;;;;;;;;;;4915269;29;20028;-77
2023/02/12 10:11:32;;;;;;;10.80;4.68;;;;;;;;;;4915923;29;20032;-76
2023/02/12 10:14:26;;;;;;;12.07;4.65;;;;;;;;;;4915610;29;20164;-77
2023/02/12 10:17:11;;;;;;;10.75;4.53;;;;;;;;;;4915402;29;20032;-74
2023/02/12 10:19:48;;;;;;;11.52;4.88;;;;;;;;;;4923102;29;20059;-77
2023/02/12 10:22:28;;;;;;;10.32;4.50;;;;;;;;;;4908674;29;20210;-76
2023/02/12 10:25:14;;;;;;;9.63;4.22;;;;;;;;;;4910665;29;20366;-78
2023/02/12 10:27:44;;;;;;;8.68;4.38;;;;;;;;;;4910090;29;20079;-77
2023/02/12 10:30:30;;;;;;;10.60;4.30;;;;;;;;;;4910400;29;20448;-78
2023/02/12 10:33:09;;;;;;;8.23;4.28;;;;;;;;;;4911526;29;20063;-76
2023/02/12 10:35:42;;;;;;;12.55;4.85;;;;;;;;;;4913367;29;20040;-78
2023/02/12 10:38:16;;;;;;;10.75;4.57;;;;;;;;;;4911140;29;20024;-77
2023/02/12 10:40:43;;;;;;;13.07;4.93;;;;;;;;;;4916957;29;20148;-76
2023/02/12 10:43:11;;;;;;;8.15;3.92;;;;;;;;;;4914028;29;20060;-76
2023/02/12 10:45:43;;;;;;;14.02;5.38;;;;;;;;;;4915012;29;20032;-76
2023/02/12 10:48:14;;;;;;;12.90;5.13;;;;;;;;;;4914407;29;20031;-76
2023/02/12 10:50:58;;;;;;;12.05;5.75;;;;;;;;;;4912900;29;20020;-75
2023/02/12 10:53:30;;;;;;;10.50;4.75;;;;;;;;;;4917397;29;20035;-76
2023/02/12 10:56:23;;;;;;;9.95;3.97;;;;;;;;;;4919460;29;20387;-76
2023/02/12 10:58:48;;;;;;;13.02;4.95;;;;;;;;;;4915962;29;20035;-76
2023/02/12 11:01:33;;;;;;;11.63;5.05;;;;;;;;;;4922199;29;20020;-76
2023/02/12 11:04:18;;;;;;;11.07;4.70;;;;;;;;;;4919071;29;20498;-77
2023/02/12 11:06:58;;;;;;;12.38;5.32;;;;;;;;;;4919562;29;20427;-75
2023/02/12 11:09:35;;;;;;;10.30;4.57;;;;;;;;;;4919104;29;20359;-76
2023/02/12 11:12:06;;;;;;;10.10;4.55;;;;;;;;;;4922486;29;20391;-76
2023/02/12 11:14:32;;;;;;;15.63;5.38;;;;;;;;;;4922286;29;20079;-76
2023/02/12 11:17:01;;;;;;;12.85;5.40;;;;;;;;;;4926771;29;20034;-76
2023/02/12 11:19:33;;;;;;;17.00;6.75;;;;;;;;;;4921866;29;20024;-76
2023/02/12 11:22:17;;;;;;;14.07;5.72;;;;;;;;;;4927403;29;20074;-76
2023/02/12 11:24:44;;;;;;;13.65;6.05;;;;;;;;;;4913896;29;20491;-76
2023/02/12 11:27:18;;;;;;;16.35;6.50;;;;;;;;;;4922961;29;20043;-76
2023/02/12 11:29:44;;;;;;;15.75;6.55;;;;;;;;;;4924584;29;20027;-77
2023/02/12 11:32:17;;;;;;;16.67;6.60;;;;;;;;;;4919085;29;20028;-77
2023/02/12 11:34:43;;;;;;;19.70;7.05;;;;;;;;;;4910991;29;20032;-76
2023/02/12 11:37:19;;;;;;;16.30;6.70;;;;;;;;;;4915187;29;20047;-76
2023/02/12 11:39:49;;;;;;;19.20;8.15;;;;;;;;;;4919563;29;20023;-76
2023/02/12 11:42:16;;;;;;;19.13;8.00;;;;;;;;;;4914843;29;20250;-75
2023/02/12 11:44:51;;;;;;;16.95;6.72;;;;;;;;;;4914191;29;20560;-75
2023/02/12 11:47:23;;;;;;;17.80;7.30;;;;;;;;;;4913699;29;20173;-75
2023/02/12 11:50:07;;;;;;;17.88;7.25;;;;;;;;;;4917545;29;20028;-75
2023/02/12 11:52:35;;;;;;;16.92;6.70;;;;;;;;;;4915969;29;20028;-76
2023/02/12 11:55:16;;;;;;;17.63;7.63;;;;;;;;;;4916361;29;20038;-76
2023/02/12 11:57:42;;;;;;;18.63;8.10;;;;;;;;;;4921345;29;20028;-75
2023/02/12 12:00:16;;;;;;;14.90;7.03;;;;;;;;;;4920078;29;20036;-75
2023/02/12 12:02:50;;;;;;;13.48;5.47;;;;;;;;;;4916364;29;20035;-75
2023/02/12 12:05:20;;;;;;;15.52;6.10;;;;;;;;;;4920888;29;20407;-75
2023/02/12 12:07:56;;;;;;;13.60;5.95;;;;;;;;;;4917988;29;20036;-74
2023/02/12 12:10:39;;;;;;;14.95;6.13;;;;;;;;;;4920923;29;20459;-75
2023/02/12 12:13:14;;;;;;;14.20;4.70;;;;;;;;;;4921546;29;20031;-75
2023/02/12 12:21:38;;;;;;;14.40;5.85;;;;;;;;;;4917058;29;20091;-76
2023/02/12 12:24:10;;;;;;;17.88;5.63;;;;;;;;;;4916582;29;20032;-76
2023/02/12 12:26:40;;;;;;;14.73;5.50;;;;;;;;;;4917444;29;20032;-77
2023/02/12 12:29:18;;;;;;;11.30;5.40;;;;;;;;;;4916712;29;20031;-75
2023/02/12 12:31:54;;;;;;;11.65;5.30;;;;;;;;;;4916331;29;20550;-76
2023/02/12 12:34:25;;;;;;;10.52;4.45;;;;;;;;;;4921020;29;20123;-77
2023/02/12 12:37:18;;;;;;;14.93;5.75;;;;;;;;;;4918753;29;20060;-76
2023/02/12 12:40:08;;;;;;;11.27;4.55;;;;;;;;;;4921198;29;20099;-77
2023/02/12 12:43:25;;;;;;;14.70;5.20;;;;;;;;;;4922579;29;20043;-76
2023/02/12 12:46:02;;;;;;;9.75;4.30;;;;;;;;;;4897826;29;20036;-77
2023/02/12 12:49:12;;;;;;;10.55;5.15;;;;;;;;;;4919161;29;20177;-77
2023/02/12 12:51:58;;;;;;;12.00;5.63;;;;;;;;;;4914519;29;20594;-77
2023/02/12 12:54:42;;;;;;;9.65;4.90;;;;;;;;;;4918688;29;20442;-77
2023/02/12 12:57:19;;;;;;;9.30;4.82;;;;;;;;;;4915969;29;20362;-75
2023/02/12 13:00:03;;;;;;;11.35;5.20;;;;;;;;;;4920966;29;20094;-76
2023/02/12 13:02:40;;;;;;;9.35;4.57;;;;;;;;;;4922561;29;20032;-76
2023/02/12 13:05:43;;;;;;;8.10;4.20;;;;;;;;;;4919864;29;20067;-77
2023/02/12 13:08:27;;;;;;;10.68;4.90;;;;;;;;;;4920657;29;20028;-76
2023/02/12 13:11:05;;;;;;;9.32;4.63;;;;;;;;;;4917837;29;20334;-77
2023/02/12 13:13:45;;;;;;;10.25;5.10;;;;;;;;;;4924048;29;20024;-76
2023/02/12 13:16:13;;;;;;;9.38;5.47;;;;;;;;;;4918664;29;20487;-76
2023/02/12 13:18:58;;;;;;;11.32;5.13;;;;;;;;;;4925323;29;20036;-76
2023/02/12 13:21:47;;;;;;;11.45;5.30;;;;;;;;;;4912906;29;20042;-76
2023/02/12 13:24:31;;;;;;;11.48;5.80;;;;;;;;;;4914535;29;20028;-76
2023/02/12 13:27:00;;;;;;;10.10;5.32;;;;;;;;;;4923831;29;20495;-76
2023/02/12 13:29:34;;;;;;;17.42;8.23;;;;;;;;;;4918811;29;20115;-76
2023/02/12 13:32:08;;;;;;;20.75;10.27;;;;;;;;;;4922909;29;20485;-76
2023/02/12 13:34:35;;;;;;;11.60;6.82;;;;;;;;;;4922469;29;20066;-76
2023/02/12 13:37:03;;;;;;;16.10;6.80;;;;;;;;;;4921052;29;20028;-76
2023/02/12 13:39:39;;;;;;;19.15;8.00;;;;;;;;;;4919543;29;20036;-76
2023/02/12 13:42:04;;;;;;;18.48;7.57;;;;;;;;;;4915338;29;20032;-76
2023/02/12 13:45:01;;;;;;;15.70;7.57;;;;;;;;;;4921618;29;20030;-76
2023/02/12 13:48:04;;;;;;;12.30;6.53;;;;;;;;;;4917260;29;20115;-77
2023/02/12 13:51:18;;;;;;;16.10;8.18;;;;;;;;;;4915213;29;20032;-76
2023/02/12 13:54:01;;;;;;;11.70;6.35;;;;;;;;;;4922058;29;20134;-76
2023/02/12 13:56:51;;;;;;;12.30;6.72;;;;;;;;;;4924839;29;20452;-76
2023/02/12 13:59:34;;;;;;;9.35;5.43;;;;;;;;;;4911587;29;20032;-77
2023/02/12 14:02:28;;;;;;;12.02;6.13;;;;;;;;;;4918703;29;20035;-76
2023/02/12 14:04:58;;;;;;;11.15;5.95;;;;;;;;;;4918650;29;20016;-76
2023/02/12 14:07:43;;;;;;;12.50;6.57;;;;;;;;;;4917597;29;20039;-76
2023/02/12 14:10:22;;;;;;;11.13;5.90;;;;;;;;;;4919566;29;20123;-76
2023/02/12 14:12:48;;;;;;;12.27;6.10;;;;;;;;;;4918941;29;20028;-76
2023/02/12 14:15:21;;;;;;;10.60;5.97;;;;;;;;;;4921099;29;20090;-76
2023/02/12 14:18:20;;;;;;;9.70;5.38;;;;;;;;;;4918839;29;20031;-77
2023/02/12 14:20:46;;;;;;;9.98;6.03;;;;;;;;;;4918670;29;20395;-77
2023/02/12 14:23:26;;;;;;;9.82;5.93;;;;;;;;;;4914306;29;20039;-77
2023/02/12 14:26:16;;;;;;;10.20;6.00;;;;;;;;;;4918267;29;20034;-78
2023/02/12 14:28:46;;;;;;;10.60;6.30;;;;;;;;;;4914657;29;20115;-77
2023/02/12 14:31:17;;;;;;;;;;;;;;;;;;4916973;29;20040;-76
2023/02/12 14:33:45;;;;;;;9.35;5.40;;;;;;;;;;4909266;29;20005;-75
2023/02/12 14:36:19;;;;;;;10.10;5.55;;;;;;;;;;4917903;29;20032;-75
2023/02/12 14:38:45;;;;;;;9.48;5.72;;;;;;;;;;4915317;29;20027;-76
2023/02/12 14:41:36;;;;;;;9.00;5.32;;;;;;;;;;4917832;29;20024;-75
2023/02/12 14:44:17;;;;;;;10.02;5.43;;;;;;;;;;4911931;29;20039;-76
2023/02/12 14:46:48;;;;;;;9.23;5.53;;;;;;;;;;4914890;29;20036;-76
2023/02/12 14:49:34;;;;;;;8.68;4.95;;;;;;;;;;4917047;29;20028;-76
2023/02/12 14:52:13;;;;;;;11.00;5.15;;;;;;;;;;4910740;29;20115;-76
2023/02/12 14:54:49;;;;;;;8.23;4.88;;;;;;;;;;4915367;29;20395;-75
2023/02/12 14:57:27;;;;;;;11.32;6.32;;;;;;;;;;4919650;29;20054;-75
2023/02/12 15:00:04;;;;;;;9.40;5.65;;;;;;;;;;4918819;29;20012;-76
2023/02/12 15:02:39;;;;;;;7.70;4.47;;;;;;;;;;4923011;29;20062;-76
2023/02/12 15:05:17;;;;;;;9.70;4.95;;;;;;;;;;4917321;29;20051;-76
2023/02/12 15:07:49;;;;;;;8.50;4.93;;;;;;;;;;4902596;29;20024;-76